UAE9N OMDB-LTFM
Flight info
| Callsign | UAE9N |
|---|---|
| Flight time | 5h 21m |
| Altitude | 34000 |
| Route | ANVIX R401 GIDIS G783 ELUDA/N0490F380 G783 RIGIL M628 PEKEM DCT MEDPO DCT ITRUX Y511 KITUB/N0495F400 Y511 PMA Z712 WEJ L677 GESON Q777 RASDA DCT USEBE M855 TOMBI UA16 LEMDA UM855 SISPI |
| Aircraft | A388/J-SADE2E3FGHIJ3J4J5M1RWXY/LB1D1 |
Departure
| Time | 2026-04-25 10:12 |
|---|---|
| Airport | Dubai International Airport (OMDB) |
Arrival
| Time | 2026-04-25 15:34 |
|---|---|
| Airport | İstanbul Airport (LTFM) |
| Time | Latitude | Longitude | Altitude | Speed | Heading |
|---|---|---|---|---|---|
| 2026-04-25 09:44 | 25.24928 | 55.36220 | 26 ft | 0 kts | 211° |
| 2026-04-25 09:59 | 25.24938 | 55.36227 | 26 ft | 4 kts | 211° |
| 2026-04-25 09:59 | 25.24957 | 55.36239 | 25 ft | 4 kts | 208° |
| 2026-04-25 10:00 | 25.24982 | 55.36250 | 25 ft | 4 kts | 188° |
| 2026-04-25 10:00 | 25.25008 | 55.36250 | 24 ft | 4 kts | 159° |
| 2026-04-25 10:00 | 25.25027 | 55.36237 | 26 ft | 4 kts | 133° |
| 2026-04-25 10:00 | 25.25042 | 55.36215 | 25 ft | 4 kts | 122° |
| 2026-04-25 10:01 | 25.25056 | 55.36191 | 25 ft | 4 kts | 122° |
| 2026-04-25 10:01 | 25.25065 | 55.36175 | 25 ft | 0 kts | 122° |
| 2026-04-25 10:06 | 25.25059 | 55.36185 | 27 ft | 4 kts | 122° |
| 2026-04-25 10:06 | 25.25037 | 55.36225 | 27 ft | 9 kts | 122° |
| 2026-04-25 10:07 | 25.24999 | 55.36293 | 27 ft | 13 kts | 122° |
| 2026-04-25 10:07 | 25.24942 | 55.36393 | 27 ft | 17 kts | 122° |
| 2026-04-25 10:07 | 25.24876 | 55.36506 | 27 ft | 20 kts | 122° |
| 2026-04-25 10:07 | 25.24810 | 55.36637 | 27 ft | 22 kts | 116° |
| 2026-04-25 10:08 | 25.24768 | 55.36801 | 27 ft | 23 kts | 107° |
| 2026-04-25 10:08 | 25.24738 | 55.36880 | 27 ft | 6 kts | 111° |
| 2026-04-25 10:08 | 25.24768 | 55.36956 | 28 ft | 12 kts | 75° |
| 2026-04-25 10:08 | 25.24737 | 55.37054 | 28 ft | 17 kts | 126° |
| 2026-04-25 10:09 | 25.24663 | 55.37191 | 28 ft | 24 kts | 120° |
| 2026-04-25 10:09 | 25.24565 | 55.37368 | 28 ft | 30 kts | 122° |
| 2026-04-25 10:09 | 25.24485 | 55.37509 | 28 ft | 34 kts | 122° |
| 2026-04-25 10:09 | 25.24340 | 55.37769 | 28 ft | 11 kts | 111° |
| 2026-04-25 10:10 | 25.24359 | 55.37832 | 29 ft | 17 kts | 46° |
| 2026-04-25 10:10 | 25.24447 | 55.37907 | 35 ft | 27 kts | 33° |
| 2026-04-25 10:10 | 25.24612 | 55.38026 | 30 ft | 29 kts | 33° |
| 2026-04-25 10:10 | 25.24741 | 55.38099 | 35 ft | 12 kts | 345° |
| 2026-04-25 10:11 | 25.24796 | 55.38045 | 35 ft | 0 kts | 303° |
| 2026-04-25 10:11 | 25.24797 | 55.38042 | 35 ft | 2 kts | 303° |
| 2026-04-25 10:11 | 25.25007 | 55.37666 | 35 ft | 100 kts | 302° |
| 2026-04-25 10:12 | 25.25308 | 55.37122 | 35 ft | 148 kts | 301° |
| 2026-04-25 10:12 | 25.25934 | 55.35993 | 225 ft | 182 kts | 302° |
| 2026-04-25 10:12 | 25.27105 | 55.33842 | 1449 ft | 170 kts | 303° |
| 2026-04-25 10:13 | 25.27729 | 55.32742 | 2046 ft | 175 kts | 303° |
| 2026-04-25 10:13 | 25.28334 | 55.31676 | 2375 ft | 189 kts | 303° |
| 2026-04-25 10:13 | 25.29024 | 55.30377 | 2606 ft | 205 kts | 295° |
| 2026-04-25 10:13 | 25.29228 | 55.28798 | 2739 ft | 222 kts | 263° |
| 2026-04-25 10:14 | 25.28639 | 55.27135 | 3038 ft | 238 kts | 244° |
| 2026-04-25 10:14 | 25.27890 | 55.25511 | 3797 ft | 239 kts | 246° |
| 2026-04-25 10:14 | 25.27174 | 55.23857 | 4570 ft | 239 kts | 246° |
| 2026-04-25 10:14 | 25.26462 | 55.22189 | 5318 ft | 239 kts | 246° |
| 2026-04-25 10:15 | 25.25757 | 55.20528 | 6062 ft | 242 kts | 246° |
| 2026-04-25 10:15 | 25.24974 | 55.18826 | 6389 ft | 262 kts | 236° |
| 2026-04-25 10:15 | 25.23601 | 55.17389 | 6637 ft | 287 kts | 212° |
| 2026-04-25 10:15 | 25.21643 | 55.16675 | 6887 ft | 311 kts | 187° |
| 2026-04-25 10:16 | 25.19424 | 55.16781 | 7168 ft | 328 kts | 169° |
| 2026-04-25 10:16 | 25.17408 | 55.17723 | 7754 ft | 334 kts | 147° |
| 2026-04-25 10:16 | 25.15753 | 55.19519 | 8379 ft | 339 kts | 126° |
| 2026-04-25 10:16 | 25.14767 | 55.21929 | 9061 ft | 344 kts | 108° |
| 2026-04-25 10:17 | 25.14129 | 55.24488 | 9680 ft | 348 kts | 107° |
| 2026-04-25 10:17 | 25.13380 | 55.27007 | 10276 ft | 349 kts | 112° |
| 2026-04-25 10:17 | 25.12450 | 55.29471 | 10898 ft | 350 kts | 116° |
| 2026-04-25 10:17 | 25.11383 | 55.31901 | 11515 ft | 352 kts | 118° |
| 2026-04-25 10:18 | 25.10295 | 55.34336 | 11990 ft | 360 kts | 116° |
| 2026-04-25 10:18 | 25.09319 | 55.36711 | 12255 ft | 372 kts | 116° |
| 2026-04-25 10:18 | 25.08233 | 55.39344 | 12902 ft | 374 kts | 116° |
| 2026-04-25 10:18 | 25.07153 | 55.41957 | 13569 ft | 376 kts | 116° |
| 2026-04-25 10:19 | 25.06093 | 55.44619 | 14101 ft | 380 kts | 115° |
| 2026-04-25 10:19 | 25.05064 | 55.47311 | 14607 ft | 384 kts | 114° |
| 2026-04-25 10:19 | 25.04029 | 55.50041 | 15106 ft | 388 kts | 115° |
| 2026-04-25 10:19 | 25.02976 | 55.52803 | 15641 ft | 391 kts | 115° |
| 2026-04-25 10:20 | 25.01873 | 55.55549 | 16121 ft | 394 kts | 119° |
| 2026-04-25 10:20 | 25.00498 | 55.58170 | 16614 ft | 396 kts | 123° |
| 2026-04-25 10:20 | 24.99072 | 55.60781 | 17094 ft | 400 kts | 123° |
| 2026-04-25 10:20 | 24.97641 | 55.63424 | 17564 ft | 403 kts | 123° |
| 2026-04-25 10:21 | 24.96199 | 55.66096 | 18043 ft | 407 kts | 123° |
| 2026-04-25 10:21 | 24.94748 | 55.68782 | 18461 ft | 410 kts | 123° |
| 2026-04-25 10:21 | 24.93166 | 55.71407 | 18825 ft | 412 kts | 128° |
| 2026-04-25 10:21 | 24.91462 | 55.73951 | 19198 ft | 416 kts | 128° |
| 2026-04-25 10:22 | 24.89764 | 55.76505 | 19585 ft | 419 kts | 128° |
| 2026-04-25 10:22 | 24.88017 | 55.79139 | 19968 ft | 422 kts | 128° |
| 2026-04-25 10:22 | 24.86282 | 55.81757 | 20345 ft | 425 kts | 128° |
| 2026-04-25 10:22 | 24.84532 | 55.84397 | 20720 ft | 428 kts | 128° |
| 2026-04-25 10:23 | 24.82759 | 55.87055 | 21084 ft | 432 kts | 128° |
| 2026-04-25 10:23 | 24.80900 | 55.89658 | 21444 ft | 433 kts | 135° |
| 2026-04-25 10:23 | 24.78599 | 55.91778 | 21816 ft | 432 kts | 150° |
| 2026-04-25 10:23 | 24.75941 | 55.93219 | 22197 ft | 430 kts | 163° |
| 2026-04-25 10:24 | 24.73041 | 55.93933 | 22576 ft | 429 kts | 177° |
| 2026-04-25 10:24 | 24.70051 | 55.93960 | 22946 ft | 429 kts | 185° |
| 2026-04-25 10:24 | 24.67100 | 55.93759 | 23352 ft | 431 kts | 186° |
| 2026-04-25 10:24 | 24.64098 | 55.93539 | 23665 ft | 433 kts | 188° |
| 2026-04-25 10:25 | 24.61159 | 55.92868 | 24003 ft | 431 kts | 201° |
| 2026-04-25 10:25 | 24.58436 | 55.91524 | 24341 ft | 429 kts | 213° |
| 2026-04-25 10:25 | 24.56047 | 55.89566 | 24731 ft | 427 kts | 223° |
| 2026-04-25 10:25 | 24.53825 | 55.87389 | 25044 ft | 430 kts | 223° |
| 2026-04-25 10:26 | 24.51602 | 55.85239 | 25437 ft | 432 kts | 223° |
| 2026-04-25 10:26 | 24.49338 | 55.83060 | 25815 ft | 434 kts | 223° |
| 2026-04-25 10:26 | 24.47059 | 55.80870 | 26188 ft | 437 kts | 223° |
| 2026-04-25 10:26 | 24.44759 | 55.78661 | 26601 ft | 439 kts | 223° |
| 2026-04-25 10:27 | 24.42454 | 55.76447 | 27020 ft | 442 kts | 223° |
| 2026-04-25 10:27 | 24.40133 | 55.74218 | 27438 ft | 445 kts | 223° |
| 2026-04-25 10:27 | 24.37798 | 55.71977 | 27880 ft | 447 kts | 223° |
| 2026-04-25 10:27 | 24.35456 | 55.69729 | 28316 ft | 450 kts | 223° |
| 2026-04-25 10:28 | 24.33083 | 55.67453 | 28760 ft | 454 kts | 223° |
| 2026-04-25 10:28 | 24.30700 | 55.65167 | 29225 ft | 456 kts | 223° |
| 2026-04-25 10:28 | 24.28235 | 55.62958 | 29643 ft | 461 kts | 217° |
| 2026-04-25 10:28 | 24.25490 | 55.61101 | 30081 ft | 467 kts | 210° |
| 2026-04-25 10:29 | 24.22503 | 55.59657 | 30481 ft | 472 kts | 202° |
| 2026-04-25 10:29 | 24.19340 | 55.58633 | 30909 ft | 476 kts | 198° |
| 2026-04-25 10:29 | 24.16136 | 55.57697 | 31301 ft | 478 kts | 198° |
| 2026-04-25 10:29 | 24.12920 | 55.56738 | 31708 ft | 480 kts | 199° |
| 2026-04-25 10:30 | 24.09690 | 55.55770 | 32093 ft | 483 kts | 199° |
| 2026-04-25 10:30 | 24.06437 | 55.54795 | 32499 ft | 485 kts | 199° |
| 2026-04-25 10:30 | 24.03171 | 55.53817 | 32893 ft | 487 kts | 199° |
| 2026-04-25 10:30 | 23.99889 | 55.52837 | 33292 ft | 490 kts | 199° |
| 2026-04-25 10:31 | 23.96592 | 55.51855 | 33699 ft | 492 kts | 199° |
| 2026-04-25 10:31 | 23.93278 | 55.50871 | 33898 ft | 494 kts | 199° |
| 2026-04-25 10:31 | 23.90003 | 55.49899 | 33908 ft | 494 kts | 199° |
| 2026-04-25 10:32 | 23.83360 | 55.47929 | 33902 ft | 494 kts | 199° |
| 2026-04-25 10:32 | 23.76739 | 55.45963 | 33901 ft | 494 kts | 199° |
| 2026-04-25 10:33 | 23.70191 | 55.44019 | 33898 ft | 494 kts | 199° |
| 2026-04-25 10:33 | 23.63556 | 55.42052 | 33894 ft | 495 kts | 199° |
| 2026-04-25 10:34 | 23.56903 | 55.40082 | 33888 ft | 496 kts | 199° |
| 2026-04-25 10:34 | 23.50237 | 55.38110 | 33887 ft | 496 kts | 199° |
| 2026-04-25 10:35 | 23.43569 | 55.36139 | 33886 ft | 497 kts | 199° |
| 2026-04-25 10:35 | 23.36896 | 55.34167 | 33884 ft | 497 kts | 199° |
| 2026-04-25 10:36 | 23.30268 | 55.32211 | 33883 ft | 497 kts | 199° |
| 2026-04-25 10:36 | 23.23549 | 55.30228 | 33875 ft | 506 kts | 199° |
| 2026-04-25 10:37 | 23.16729 | 55.28219 | 33868 ft | 509 kts | 199° |
| 2026-04-25 10:37 | 23.10229 | 55.25837 | 33869 ft | 503 kts | 211° |
| 2026-04-25 10:38 | 23.04796 | 55.21211 | 33866 ft | 495 kts | 231° |
| 2026-04-25 10:38 | 23.01291 | 55.14834 | 33861 ft | 488 kts | 251° |
| 2026-04-25 10:39 | 22.99733 | 55.07726 | 33858 ft | 487 kts | 259° |
| 2026-04-25 10:39 | 22.98299 | 55.00471 | 33855 ft | 487 kts | 258° |
| 2026-04-25 10:40 | 22.96868 | 54.93291 | 33851 ft | 486 kts | 258° |
| 2026-04-25 10:40 | 22.95452 | 54.86154 | 33852 ft | 486 kts | 258° |
| 2026-04-25 10:41 | 22.94026 | 54.78976 | 34041 ft | 490 kts | 258° |
| 2026-04-25 10:41 | 22.93311 | 54.75392 | 34884 ft | 478 kts | 259° |
| 2026-04-25 10:41 | 22.92620 | 54.71947 | 36128 ft | 460 kts | 260° |
| 2026-04-25 10:41 | 22.91947 | 54.68589 | 36942 ft | 451 kts | 261° |
| 2026-04-25 10:42 | 22.91287 | 54.65290 | 37421 ft | 444 kts | 261° |
| 2026-04-25 10:42 | 22.90636 | 54.62028 | 37689 ft | 440 kts | 262° |
| 2026-04-25 10:42 | 22.89990 | 54.58791 | 37842 ft | 438 kts | 262° |
| 2026-04-25 10:43 | 22.88710 | 54.52383 | 37865 ft | 437 kts | 262° |
| 2026-04-25 10:43 | 22.87418 | 54.45945 | 37867 ft | 437 kts | 262° |
| 2026-04-25 10:44 | 22.86120 | 54.39502 | 37867 ft | 436 kts | 262° |
| 2026-04-25 10:44 | 22.84819 | 54.33056 | 37869 ft | 437 kts | 262° |
| 2026-04-25 10:45 | 22.83518 | 54.26626 | 37870 ft | 436 kts | 262° |
| 2026-04-25 10:45 | 22.82218 | 54.20214 | 37866 ft | 435 kts | 262° |
| 2026-04-25 10:46 | 22.80927 | 54.13852 | 37872 ft | 437 kts | 262° |
| 2026-04-25 10:46 | 22.79593 | 54.07277 | 37870 ft | 454 kts | 262° |
| 2026-04-25 10:47 | 22.78239 | 54.00658 | 37870 ft | 449 kts | 262° |
| 2026-04-25 10:47 | 22.76916 | 53.94027 | 37876 ft | 450 kts | 262° |
| 2026-04-25 10:48 | 22.75637 | 53.87406 | 37877 ft | 449 kts | 262° |
| 2026-04-25 10:48 | 22.74350 | 53.80786 | 37877 ft | 448 kts | 262° |
| 2026-04-25 10:49 | 22.73057 | 53.74181 | 37792 ft | 448 kts | 262° |
| 2026-04-25 10:49 | 22.71744 | 53.67477 | 37885 ft | 460 kts | 262° |
| 2026-04-25 10:50 | 22.70409 | 53.60700 | 37882 ft | 459 kts | 262° |
| 2026-04-25 10:50 | 22.69081 | 53.53979 | 37874 ft | 459 kts | 262° |
| 2026-04-25 10:51 | 22.67746 | 53.47226 | 37876 ft | 459 kts | 262° |
| 2026-04-25 10:51 | 22.66406 | 53.40466 | 37873 ft | 459 kts | 262° |
| 2026-04-25 10:52 | 22.65064 | 53.33710 | 37883 ft | 459 kts | 262° |
| 2026-04-25 10:52 | 22.63722 | 53.26970 | 37889 ft | 459 kts | 262° |
| 2026-04-25 10:53 | 22.62373 | 53.20207 | 37888 ft | 458 kts | 262° |
| 2026-04-25 10:53 | 22.61024 | 53.13466 | 37884 ft | 458 kts | 262° |
| 2026-04-25 10:54 | 22.59683 | 53.06773 | 37874 ft | 458 kts | 262° |
| 2026-04-25 10:54 | 22.58328 | 53.00029 | 37872 ft | 458 kts | 262° |
| 2026-04-25 10:55 | 22.56974 | 52.93304 | 37881 ft | 458 kts | 262° |
| 2026-04-25 10:55 | 22.55615 | 52.86570 | 37888 ft | 458 kts | 262° |
| 2026-04-25 10:56 | 22.54254 | 52.79841 | 37889 ft | 458 kts | 262° |
| 2026-04-25 10:56 | 22.52891 | 52.73121 | 37886 ft | 458 kts | 262° |
| 2026-04-25 10:57 | 22.51523 | 52.66389 | 37883 ft | 458 kts | 262° |
| 2026-04-25 10:57 | 22.50164 | 52.59715 | 37881 ft | 457 kts | 262° |
| 2026-04-25 10:58 | 22.49025 | 52.54134 | 37882 ft | 457 kts | 262° |
| 2026-04-25 10:58 | 22.47423 | 52.46300 | 37886 ft | 457 kts | 262° |
| 2026-04-25 10:59 | 22.46281 | 52.40729 | 37885 ft | 457 kts | 262° |
| 2026-04-25 10:59 | 22.44904 | 52.34021 | 37887 ft | 456 kts | 262° |
| 2026-04-25 11:00 | 22.43527 | 52.27332 | 37887 ft | 456 kts | 262° |
| 2026-04-25 11:00 | 22.42145 | 52.20632 | 37892 ft | 456 kts | 262° |
| 2026-04-25 11:01 | 22.41048 | 52.13924 | 37888 ft | 451 kts | 269° |
| 2026-04-25 11:01 | 22.41083 | 52.07185 | 37888 ft | 447 kts | 278° |
| 2026-04-25 11:02 | 22.41687 | 52.00491 | 37892 ft | 447 kts | 277° |
| 2026-04-25 11:02 | 22.42261 | 51.93784 | 37894 ft | 448 kts | 277° |
| 2026-04-25 11:03 | 22.42833 | 51.87132 | 37895 ft | 448 kts | 277° |
| 2026-04-25 11:03 | 22.43408 | 51.80430 | 37900 ft | 448 kts | 277° |
| 2026-04-25 11:04 | 22.43981 | 51.73713 | 37901 ft | 449 kts | 277° |
| 2026-04-25 11:04 | 22.44551 | 51.66992 | 37894 ft | 449 kts | 277° |
| 2026-04-25 11:05 | 22.45118 | 51.60269 | 37896 ft | 450 kts | 277° |
| 2026-04-25 11:05 | 22.45680 | 51.53572 | 37895 ft | 450 kts | 277° |
| 2026-04-25 11:06 | 22.46242 | 51.46850 | 37897 ft | 449 kts | 277° |
| 2026-04-25 11:06 | 22.46800 | 51.40132 | 37897 ft | 448 kts | 277° |
| 2026-04-25 11:07 | 22.47356 | 51.33405 | 37897 ft | 448 kts | 277° |
| 2026-04-25 11:07 | 22.47908 | 51.26694 | 37895 ft | 448 kts | 277° |
| 2026-04-25 11:08 | 22.48457 | 51.19984 | 37897 ft | 448 kts | 277° |
| 2026-04-25 11:08 | 22.49003 | 51.13283 | 37896 ft | 447 kts | 277° |
| 2026-04-25 11:09 | 22.49545 | 51.06583 | 37894 ft | 446 kts | 277° |
| 2026-04-25 11:09 | 22.50081 | 50.99941 | 37897 ft | 446 kts | 277° |
| 2026-04-25 11:10 | 22.50617 | 50.93258 | 37892 ft | 445 kts | 277° |
| 2026-04-25 11:10 | 22.51149 | 50.86584 | 37896 ft | 445 kts | 277° |
| 2026-04-25 11:11 | 22.51678 | 50.79917 | 37894 ft | 445 kts | 277° |
| 2026-04-25 11:11 | 22.52203 | 50.73256 | 37892 ft | 444 kts | 277° |
| 2026-04-25 11:12 | 22.52722 | 50.66645 | 37893 ft | 444 kts | 277° |
| 2026-04-25 11:12 | 22.53241 | 50.59997 | 37891 ft | 443 kts | 277° |
| 2026-04-25 11:13 | 22.53760 | 50.53312 | 37897 ft | 443 kts | 277° |
| 2026-04-25 11:13 | 22.54270 | 50.46710 | 37895 ft | 443 kts | 277° |
| 2026-04-25 11:14 | 22.54782 | 50.40058 | 37897 ft | 443 kts | 277° |
| 2026-04-25 11:14 | 22.55289 | 50.33412 | 37895 ft | 443 kts | 277° |
| 2026-04-25 11:15 | 22.55793 | 50.26781 | 37895 ft | 443 kts | 277° |
| 2026-04-25 11:15 | 22.56295 | 50.20142 | 37895 ft | 442 kts | 277° |
| 2026-04-25 11:16 | 22.57041 | 50.10196 | 37902 ft | 442 kts | 277° |
| 2026-04-25 11:16 | 22.57531 | 50.03625 | 37899 ft | 441 kts | 277° |
| 2026-04-25 11:17 | 22.58022 | 49.97009 | 37898 ft | 441 kts | 277° |
| 2026-04-25 11:17 | 22.58510 | 49.90385 | 37894 ft | 441 kts | 277° |
| 2026-04-25 11:18 | 22.58994 | 49.83781 | 37895 ft | 440 kts | 276° |
| 2026-04-25 11:18 | 22.59476 | 49.77168 | 37898 ft | 440 kts | 276° |
| 2026-04-25 11:19 | 22.59954 | 49.70564 | 37900 ft | 440 kts | 276° |
| 2026-04-25 11:19 | 22.60430 | 49.63964 | 37895 ft | 440 kts | 276° |
| 2026-04-25 11:20 | 22.60898 | 49.57430 | 37898 ft | 440 kts | 276° |
| 2026-04-25 11:20 | 22.61368 | 49.50839 | 37897 ft | 439 kts | 276° |
| 2026-04-25 11:21 | 22.61836 | 49.44232 | 37897 ft | 439 kts | 276° |
| 2026-04-25 11:21 | 22.62299 | 49.37645 | 37899 ft | 439 kts | 276° |
| 2026-04-25 11:22 | 22.62683 | 49.32166 | 37898 ft | 439 kts | 276° |
| 2026-04-25 11:22 | 22.63216 | 49.24503 | 37897 ft | 439 kts | 276° |
| 2026-04-25 11:23 | 22.63672 | 49.17916 | 37900 ft | 439 kts | 276° |
| 2026-04-25 11:23 | 22.64124 | 49.11335 | 37904 ft | 439 kts | 276° |
| 2026-04-25 11:24 | 22.64574 | 49.04749 | 37894 ft | 438 kts | 276° |
| 2026-04-25 11:24 | 22.65021 | 48.98170 | 37894 ft | 438 kts | 276° |
| 2026-04-25 11:25 | 22.65466 | 48.91587 | 37894 ft | 438 kts | 276° |
| 2026-04-25 11:25 | 22.65908 | 48.85005 | 37892 ft | 438 kts | 276° |
| 2026-04-25 11:26 | 22.66343 | 48.78472 | 37898 ft | 437 kts | 276° |
| 2026-04-25 11:26 | 22.66779 | 48.71903 | 37892 ft | 438 kts | 276° |
| 2026-04-25 11:27 | 22.67211 | 48.65334 | 37893 ft | 437 kts | 276° |
| 2026-04-25 11:27 | 22.67569 | 48.59878 | 37898 ft | 437 kts | 276° |
| 2026-04-25 11:28 | 22.68068 | 48.52208 | 37895 ft | 437 kts | 276° |
| 2026-04-25 11:28 | 22.68492 | 48.45641 | 37900 ft | 437 kts | 276° |
| 2026-04-25 11:29 | 22.68915 | 48.39065 | 37899 ft | 437 kts | 276° |
| 2026-04-25 11:29 | 22.69334 | 48.32500 | 37898 ft | 437 kts | 275° |
| 2026-04-25 11:30 | 22.69747 | 48.25980 | 37898 ft | 437 kts | 275° |
| 2026-04-25 11:30 | 22.70161 | 48.19414 | 37903 ft | 437 kts | 275° |
| 2026-04-25 11:31 | 22.70571 | 48.12861 | 37902 ft | 436 kts | 275° |
| 2026-04-25 11:31 | 22.70979 | 48.06296 | 37902 ft | 437 kts | 275° |
| 2026-04-25 11:32 | 22.71384 | 47.99732 | 37900 ft | 436 kts | 275° |
| 2026-04-25 11:32 | 22.71786 | 47.93175 | 37904 ft | 436 kts | 275° |
| 2026-04-25 11:33 | 22.72186 | 47.86614 | 37903 ft | 436 kts | 275° |
| 2026-04-25 11:33 | 22.72583 | 47.80064 | 37910 ft | 436 kts | 275° |
| 2026-04-25 11:34 | 22.72974 | 47.73551 | 37909 ft | 436 kts | 275° |
| 2026-04-25 11:34 | 22.73365 | 47.67000 | 37910 ft | 436 kts | 275° |
| 2026-04-25 11:35 | 22.73754 | 47.60450 | 37912 ft | 435 kts | 275° |
| 2026-04-25 11:35 | 22.74139 | 47.53902 | 37915 ft | 435 kts | 275° |
| 2026-04-25 11:36 | 22.74523 | 47.47345 | 37920 ft | 435 kts | 275° |
| 2026-04-25 11:36 | 22.74903 | 47.40789 | 37922 ft | 435 kts | 275° |
| 2026-04-25 11:37 | 22.75281 | 47.34246 | 37928 ft | 435 kts | 275° |
| 2026-04-25 11:37 | 22.75658 | 47.27705 | 37930 ft | 435 kts | 275° |
| 2026-04-25 11:38 | 22.76033 | 47.21157 | 37935 ft | 435 kts | 275° |
| 2026-04-25 11:38 | 22.76430 | 47.14605 | 37938 ft | 435 kts | 276° |
| 2026-04-25 11:39 | 22.76962 | 47.08124 | 37940 ft | 435 kts | 276° |
| 2026-04-25 11:39 | 22.77497 | 47.01605 | 37947 ft | 435 kts | 276° |
| 2026-04-25 11:40 | 22.78015 | 46.95069 | 37950 ft | 435 kts | 276° |
| 2026-04-25 11:40 | 22.78525 | 46.88553 | 37951 ft | 434 kts | 276° |
| 2026-04-25 11:41 | 22.79033 | 46.82031 | 37947 ft | 434 kts | 275° |
| 2026-04-25 11:41 | 22.79538 | 46.75509 | 37944 ft | 434 kts | 275° |
| 2026-04-25 11:42 | 22.80037 | 46.69031 | 37949 ft | 434 kts | 275° |
| 2026-04-25 11:42 | 22.80537 | 46.62518 | 37952 ft | 434 kts | 275° |
| 2026-04-25 11:43 | 22.81034 | 46.56001 | 37957 ft | 434 kts | 275° |
| 2026-04-25 11:43 | 22.81527 | 46.49489 | 37969 ft | 434 kts | 275° |
| 2026-04-25 11:44 | 22.82018 | 46.42977 | 37973 ft | 434 kts | 275° |
| 2026-04-25 11:44 | 22.82507 | 46.36458 | 37970 ft | 433 kts | 275° |
| 2026-04-25 11:45 | 22.82989 | 46.29947 | 37961 ft | 433 kts | 275° |
| 2026-04-25 11:45 | 22.83469 | 46.23435 | 37959 ft | 433 kts | 275° |
| 2026-04-25 11:46 | 22.83947 | 46.16928 | 37965 ft | 433 kts | 275° |
| 2026-04-25 11:46 | 22.84342 | 46.11520 | 37948 ft | 433 kts | 275° |
| 2026-04-25 11:47 | 22.84890 | 46.03957 | 37949 ft | 433 kts | 275° |
| 2026-04-25 11:47 | 22.85284 | 45.98508 | 37949 ft | 432 kts | 275° |
| 2026-04-25 11:48 | 22.85750 | 45.92017 | 37941 ft | 432 kts | 275° |
| 2026-04-25 11:48 | 22.86288 | 45.84475 | 37941 ft | 432 kts | 275° |
| 2026-04-25 11:49 | 22.86673 | 45.79040 | 37933 ft | 431 kts | 275° |
| 2026-04-25 11:49 | 22.87131 | 45.72548 | 37935 ft | 431 kts | 275° |
| 2026-04-25 11:50 | 22.87583 | 45.66109 | 37944 ft | 431 kts | 275° |
| 2026-04-25 11:50 | 22.88035 | 45.59623 | 37936 ft | 431 kts | 275° |
| 2026-04-25 11:51 | 22.88484 | 45.53145 | 37937 ft | 430 kts | 275° |
| 2026-04-25 11:51 | 22.88931 | 45.46668 | 37932 ft | 431 kts | 275° |
| 2026-04-25 11:52 | 22.89374 | 45.40195 | 37934 ft | 431 kts | 275° |
| 2026-04-25 11:52 | 22.89816 | 45.33704 | 37938 ft | 432 kts | 275° |
| 2026-04-25 11:53 | 22.90255 | 45.27214 | 37934 ft | 431 kts | 275° |
| 2026-04-25 11:53 | 22.90689 | 45.20772 | 37932 ft | 430 kts | 275° |
| 2026-04-25 11:54 | 22.91124 | 45.14259 | 37934 ft | 431 kts | 275° |
| 2026-04-25 11:55 | 22.91768 | 45.04573 | 37933 ft | 431 kts | 275° |
| 2026-04-25 11:55 | 22.92193 | 44.98099 | 37937 ft | 430 kts | 274° |
| 2026-04-25 11:56 | 22.92616 | 44.91614 | 37936 ft | 431 kts | 274° |
| 2026-04-25 11:56 | 22.93037 | 44.85126 | 37933 ft | 431 kts | 274° |
| 2026-04-25 11:57 | 22.93456 | 44.78631 | 37939 ft | 431 kts | 274° |
| 2026-04-25 11:57 | 22.93869 | 44.72186 | 37933 ft | 431 kts | 274° |
| 2026-04-25 11:58 | 22.94736 | 44.65756 | 37931 ft | 432 kts | 282° |
| 2026-04-25 11:58 | 22.96536 | 44.59519 | 37933 ft | 433 kts | 287° |
| 2026-04-25 11:59 | 22.98449 | 44.53332 | 37931 ft | 433 kts | 286° |
| 2026-04-25 11:59 | 23.00354 | 44.47132 | 37931 ft | 433 kts | 286° |
| 2026-04-25 12:00 | 23.03216 | 44.37828 | 37928 ft | 433 kts | 286° |
| 2026-04-25 12:01 | 23.06076 | 44.28514 | 37931 ft | 433 kts | 286° |
| 2026-04-25 12:01 | 23.07981 | 44.22300 | 37931 ft | 434 kts | 286° |
| 2026-04-25 12:02 | 23.10821 | 44.13014 | 37930 ft | 433 kts | 286° |
| 2026-04-25 12:02 | 23.12721 | 44.06791 | 37930 ft | 433 kts | 286° |
| 2026-04-25 12:03 | 23.14613 | 44.00581 | 37939 ft | 433 kts | 286° |
| 2026-04-25 12:03 | 23.16503 | 43.94369 | 37940 ft | 434 kts | 286° |
| 2026-04-25 12:04 | 23.18394 | 43.88147 | 37936 ft | 433 kts | 286° |
| 2026-04-25 12:04 | 23.20282 | 43.81923 | 37939 ft | 433 kts | 286° |
| 2026-04-25 12:05 | 23.22166 | 43.75701 | 37942 ft | 433 kts | 286° |
| 2026-04-25 12:05 | 23.24047 | 43.69481 | 37946 ft | 433 kts | 286° |
| 2026-04-25 12:06 | 23.25928 | 43.63253 | 37952 ft | 433 kts | 286° |
| 2026-04-25 12:06 | 23.27806 | 43.57024 | 37954 ft | 433 kts | 285° |
| 2026-04-25 12:07 | 23.29631 | 43.50962 | 37960 ft | 433 kts | 285° |
| 2026-04-25 12:07 | 23.31507 | 43.44717 | 37959 ft | 433 kts | 285° |
| 2026-04-25 12:08 | 23.33380 | 43.38475 | 37966 ft | 433 kts | 285° |
| 2026-04-25 12:08 | 23.35247 | 43.32246 | 37966 ft | 433 kts | 285° |
| 2026-04-25 12:09 | 23.37098 | 43.26057 | 37976 ft | 432 kts | 285° |
| 2026-04-25 12:09 | 23.38955 | 43.19837 | 37975 ft | 432 kts | 285° |
| 2026-04-25 12:10 | 23.40816 | 43.13596 | 37978 ft | 432 kts | 285° |
| 2026-04-25 12:10 | 23.42666 | 43.07370 | 37981 ft | 432 kts | 285° |
| 2026-04-25 12:11 | 23.44512 | 43.01141 | 37984 ft | 432 kts | 285° |
| 2026-04-25 12:11 | 23.46356 | 42.94910 | 37986 ft | 432 kts | 285° |
| 2026-04-25 12:12 | 23.47887 | 42.89730 | 37982 ft | 432 kts | 285° |
| 2026-04-25 12:12 | 23.50040 | 42.82433 | 37985 ft | 433 kts | 285° |
| 2026-04-25 12:13 | 23.51865 | 42.76237 | 37981 ft | 432 kts | 285° |
| 2026-04-25 12:13 | 23.53702 | 42.70002 | 37980 ft | 433 kts | 285° |
| 2026-04-25 12:14 | 23.55544 | 42.63747 | 37973 ft | 432 kts | 285° |
| 2026-04-25 12:14 | 23.57378 | 42.57506 | 37966 ft | 432 kts | 285° |
| 2026-04-25 12:15 | 23.59211 | 42.51260 | 37971 ft | 432 kts | 285° |
| 2026-04-25 12:15 | 23.61039 | 42.45017 | 37970 ft | 432 kts | 285° |
| 2026-04-25 12:16 | 23.62852 | 42.38818 | 37966 ft | 431 kts | 285° |
| 2026-04-25 12:16 | 23.64682 | 42.32551 | 37970 ft | 430 kts | 285° |
| 2026-04-25 12:17 | 23.66495 | 42.26328 | 37967 ft | 431 kts | 285° |
| 2026-04-25 12:17 | 23.68292 | 42.20129 | 37972 ft | 431 kts | 285° |
| 2026-04-25 12:18 | 23.70093 | 42.13906 | 37969 ft | 430 kts | 285° |
| 2026-04-25 12:18 | 23.71892 | 42.07682 | 37972 ft | 430 kts | 285° |
| 2026-04-25 12:19 | 23.74586 | 41.98342 | 37968 ft | 430 kts | 285° |
| 2026-04-25 12:20 | 23.76388 | 41.92109 | 37977 ft | 430 kts | 285° |
| 2026-04-25 12:20 | 23.78185 | 41.85887 | 37980 ft | 430 kts | 285° |
| 2026-04-25 12:21 | 23.79983 | 41.79651 | 37990 ft | 431 kts | 285° |
| 2026-04-25 12:21 | 23.81778 | 41.73410 | 37988 ft | 431 kts | 285° |
| 2026-04-25 12:22 | 23.83576 | 41.67145 | 37994 ft | 432 kts | 284° |
| 2026-04-25 12:22 | 23.85368 | 41.60887 | 38001 ft | 432 kts | 284° |
| 2026-04-25 12:23 | 23.87154 | 41.54641 | 38005 ft | 433 kts | 284° |
| 2026-04-25 12:23 | 23.88943 | 41.48345 | 38010 ft | 434 kts | 284° |
| 2026-04-25 12:24 | 23.90732 | 41.42037 | 38013 ft | 435 kts | 284° |
| 2026-04-25 12:24 | 23.92526 | 41.35703 | 38017 ft | 436 kts | 284° |
| 2026-04-25 12:25 | 23.94322 | 41.29368 | 38016 ft | 436 kts | 284° |
| 2026-04-25 12:25 | 23.96119 | 41.23028 | 38014 ft | 437 kts | 284° |
| 2026-04-25 12:26 | 23.97914 | 41.16681 | 38012 ft | 437 kts | 284° |
| 2026-04-25 12:26 | 23.99700 | 41.10354 | 38008 ft | 438 kts | 284° |
| 2026-04-25 12:27 | 24.01491 | 41.03996 | 38008 ft | 437 kts | 284° |
| 2026-04-25 12:27 | 24.03283 | 40.97626 | 38002 ft | 437 kts | 284° |
| 2026-04-25 12:28 | 24.05072 | 40.91257 | 37992 ft | 437 kts | 284° |
| 2026-04-25 12:28 | 24.06854 | 40.84900 | 37992 ft | 437 kts | 284° |
| 2026-04-25 12:29 | 24.08622 | 40.78578 | 37988 ft | 436 kts | 284° |
| 2026-04-25 12:29 | 24.10396 | 40.72229 | 37981 ft | 436 kts | 284° |
| 2026-04-25 12:30 | 24.11875 | 40.66922 | 37979 ft | 435 kts | 284° |
| 2026-04-25 12:30 | 24.13641 | 40.60580 | 37970 ft | 436 kts | 284° |
| 2026-04-25 12:31 | 24.15410 | 40.54226 | 37964 ft | 437 kts | 285° |
| 2026-04-25 12:31 | 24.17792 | 40.48063 | 37959 ft | 443 kts | 294° |
| 2026-04-25 12:32 | 24.20685 | 40.42100 | 37951 ft | 443 kts | 293° |
| 2026-04-25 12:32 | 24.23544 | 40.36121 | 37944 ft | 443 kts | 293° |
| 2026-04-25 12:33 | 24.26406 | 40.30140 | 37938 ft | 443 kts | 293° |
| 2026-04-25 12:33 | 24.29265 | 40.24159 | 37922 ft | 443 kts | 293° |
| 2026-04-25 12:34 | 24.32121 | 40.18181 | 37924 ft | 443 kts | 293° |
| 2026-04-25 12:34 | 24.34978 | 40.12192 | 37942 ft | 442 kts | 293° |
| 2026-04-25 12:35 | 24.37751 | 40.06372 | 37932 ft | 442 kts | 293° |
| 2026-04-25 12:35 | 24.40591 | 40.00404 | 37928 ft | 441 kts | 293° |
| 2026-04-25 12:36 | 24.43422 | 39.94448 | 37925 ft | 440 kts | 293° |
| 2026-04-25 12:36 | 24.45766 | 39.89512 | 37923 ft | 440 kts | 293° |
| 2026-04-25 12:37 | 24.49070 | 39.82542 | 37915 ft | 440 kts | 293° |
| 2026-04-25 12:37 | 24.51420 | 39.77579 | 37915 ft | 439 kts | 293° |
| 2026-04-25 12:38 | 24.54673 | 39.71870 | 37911 ft | 447 kts | 303° |
| 2026-04-25 12:38 | 24.59151 | 39.67028 | 37921 ft | 459 kts | 315° |
| 2026-04-25 12:39 | 24.64349 | 39.62898 | 37914 ft | 460 kts | 316° |
| 2026-04-25 12:39 | 24.69531 | 39.58752 | 37918 ft | 460 kts | 316° |
| 2026-04-25 12:40 | 24.74692 | 39.54621 | 37921 ft | 459 kts | 316° |
| 2026-04-25 12:40 | 24.79828 | 39.50510 | 37922 ft | 459 kts | 316° |
| 2026-04-25 12:41 | 24.85018 | 39.46355 | 37920 ft | 458 kts | 316° |
| 2026-04-25 12:41 | 24.90135 | 39.42251 | 37924 ft | 458 kts | 316° |
| 2026-04-25 12:42 | 24.95285 | 39.38117 | 37917 ft | 458 kts | 316° |
| 2026-04-25 12:42 | 25.00437 | 39.33977 | 37914 ft | 458 kts | 316° |
| 2026-04-25 12:43 | 25.05584 | 39.29838 | 37913 ft | 457 kts | 316° |
| 2026-04-25 12:43 | 25.13288 | 39.23632 | 37911 ft | 457 kts | 315° |
| 2026-04-25 12:44 | 25.18409 | 39.19464 | 37908 ft | 454 kts | 313° |
| 2026-04-25 12:44 | 25.22880 | 39.14675 | 37904 ft | 442 kts | 303° |
| 2026-04-25 12:45 | 25.24763 | 39.12018 | 37900 ft | 437 kts | 299° |
| 2026-04-25 12:45 | 25.29701 | 39.03635 | 37889 ft | 434 kts | 297° |
| 2026-04-25 12:46 | 25.32991 | 38.98033 | 37898 ft | 434 kts | 297° |
| 2026-04-25 12:46 | 25.36269 | 38.92426 | 37867 ft | 433 kts | 297° |
| 2026-04-25 12:47 | 25.39539 | 38.86820 | 37863 ft | 433 kts | 297° |
| 2026-04-25 12:47 | 25.42786 | 38.81248 | 37869 ft | 433 kts | 296° |
| 2026-04-25 12:48 | 25.46047 | 38.75644 | 37857 ft | 433 kts | 296° |
| 2026-04-25 12:48 | 25.49302 | 38.70044 | 37853 ft | 432 kts | 296° |
| 2026-04-25 12:49 | 25.52561 | 38.64432 | 37852 ft | 432 kts | 296° |
| 2026-04-25 12:49 | 25.55809 | 38.58830 | 37848 ft | 432 kts | 296° |
| 2026-04-25 12:50 | 25.59050 | 38.53234 | 37848 ft | 431 kts | 296° |
| 2026-04-25 12:50 | 25.62292 | 38.47630 | 37844 ft | 431 kts | 296° |
| 2026-04-25 12:51 | 25.65523 | 38.42039 | 37843 ft | 431 kts | 296° |
| 2026-04-25 12:51 | 25.68752 | 38.36444 | 37843 ft | 430 kts | 296° |
| 2026-04-25 12:52 | 25.71973 | 38.30856 | 37842 ft | 429 kts | 296° |
| 2026-04-25 12:52 | 25.75163 | 38.25315 | 37843 ft | 429 kts | 296° |
| 2026-04-25 12:53 | 25.78370 | 38.19739 | 37844 ft | 428 kts | 296° |
| 2026-04-25 12:53 | 25.81570 | 38.14167 | 37843 ft | 427 kts | 296° |
| 2026-04-25 12:54 | 25.84748 | 38.08627 | 37852 ft | 426 kts | 296° |
| 2026-04-25 12:54 | 25.87933 | 38.03067 | 37866 ft | 427 kts | 296° |
| 2026-04-25 12:55 | 25.90580 | 37.98442 | 37851 ft | 428 kts | 296° |
| 2026-04-25 12:55 | 25.94308 | 37.91925 | 37870 ft | 425 kts | 296° |
| 2026-04-25 12:56 | 25.97461 | 37.86394 | 37876 ft | 424 kts | 295° |
| 2026-04-25 12:56 | 25.99968 | 37.80552 | 37882 ft | 416 kts | 285° |
| 2026-04-25 12:57 | 26.01401 | 37.74381 | 37887 ft | 411 kts | 276° |
| 2026-04-25 12:57 | 26.02239 | 37.68097 | 37890 ft | 411 kts | 276° |
| 2026-04-25 12:58 | 26.03106 | 37.61788 | 37886 ft | 411 kts | 276° |
| 2026-04-25 12:58 | 26.03957 | 37.55535 | 37885 ft | 410 kts | 276° |
| 2026-04-25 12:59 | 26.04797 | 37.49297 | 37885 ft | 410 kts | 276° |
| 2026-04-25 12:59 | 26.05639 | 37.43026 | 37884 ft | 410 kts | 276° |
| 2026-04-25 13:00 | 26.06200 | 37.38834 | 37879 ft | 409 kts | 276° |
| 2026-04-25 13:00 | 26.07312 | 37.30499 | 37872 ft | 409 kts | 276° |
| 2026-04-25 13:01 | 26.08144 | 37.24235 | 37864 ft | 408 kts | 276° |
| 2026-04-25 13:01 | 26.08969 | 37.17989 | 37866 ft | 409 kts | 276° |
| 2026-04-25 13:02 | 26.09790 | 37.11764 | 37857 ft | 408 kts | 276° |
| 2026-04-25 13:02 | 26.10610 | 37.05529 | 37859 ft | 408 kts | 276° |
| 2026-04-25 13:03 | 26.11427 | 36.99286 | 37854 ft | 408 kts | 276° |
| 2026-04-25 13:03 | 26.12244 | 36.93028 | 37853 ft | 409 kts | 276° |
| 2026-04-25 13:04 | 26.13058 | 36.86774 | 37855 ft | 408 kts | 276° |
| 2026-04-25 13:04 | 26.13862 | 36.80573 | 37853 ft | 407 kts | 276° |
| 2026-04-25 13:05 | 26.14668 | 36.74334 | 37854 ft | 407 kts | 276° |
| 2026-04-25 13:05 | 26.15465 | 36.68137 | 37852 ft | 407 kts | 276° |
| 2026-04-25 13:06 | 26.16266 | 36.61894 | 37857 ft | 407 kts | 276° |
| 2026-04-25 13:06 | 26.17065 | 36.55651 | 37854 ft | 407 kts | 276° |
| 2026-04-25 13:07 | 26.18691 | 36.49592 | 37857 ft | 415 kts | 290° |
| 2026-04-25 13:07 | 26.21959 | 36.44168 | 37858 ft | 431 kts | 304° |
| 2026-04-25 13:08 | 26.26147 | 36.39383 | 37857 ft | 433 kts | 305° |
| 2026-04-25 13:08 | 26.30332 | 36.34556 | 37858 ft | 433 kts | 305° |
| 2026-04-25 13:09 | 26.34507 | 36.29734 | 37862 ft | 432 kts | 305° |
| 2026-04-25 13:09 | 26.38693 | 36.24899 | 37852 ft | 432 kts | 305° |
| 2026-04-25 13:10 | 26.42869 | 36.20070 | 37858 ft | 432 kts | 304° |
| 2026-04-25 13:10 | 26.47033 | 36.15251 | 37858 ft | 431 kts | 304° |
| 2026-04-25 13:11 | 26.51172 | 36.10455 | 37858 ft | 431 kts | 304° |
| 2026-04-25 13:11 | 26.55333 | 36.05629 | 37862 ft | 431 kts | 304° |
| 2026-04-25 13:12 | 26.59487 | 36.00804 | 37848 ft | 431 kts | 304° |
| 2026-04-25 13:12 | 26.62964 | 35.96762 | 37873 ft | 431 kts | 304° |
| 2026-04-25 13:13 | 26.67792 | 35.91143 | 37860 ft | 430 kts | 304° |
| 2026-04-25 13:13 | 26.71936 | 35.86314 | 37861 ft | 430 kts | 304° |
| 2026-04-25 13:14 | 26.76079 | 35.81481 | 37861 ft | 430 kts | 304° |
| 2026-04-25 13:14 | 26.80218 | 35.76648 | 37860 ft | 430 kts | 304° |
| 2026-04-25 13:15 | 26.84356 | 35.71809 | 37864 ft | 430 kts | 304° |
| 2026-04-25 13:15 | 26.88496 | 35.66966 | 37863 ft | 430 kts | 304° |
| 2026-04-25 13:16 | 26.92623 | 35.62130 | 37864 ft | 429 kts | 304° |
| 2026-04-25 13:16 | 26.96729 | 35.57314 | 37864 ft | 429 kts | 304° |
| 2026-04-25 13:17 | 27.00850 | 35.52476 | 37865 ft | 429 kts | 304° |
| 2026-04-25 13:17 | 27.04971 | 35.47631 | 37863 ft | 429 kts | 304° |
| 2026-04-25 13:18 | 27.09084 | 35.42790 | 37864 ft | 429 kts | 304° |
| 2026-04-25 13:18 | 27.13207 | 35.37933 | 37866 ft | 429 kts | 304° |
| 2026-04-25 13:19 | 27.17311 | 35.33092 | 37864 ft | 428 kts | 304° |
| 2026-04-25 13:19 | 27.20028 | 35.29883 | 37870 ft | 428 kts | 304° |
| 2026-04-25 13:20 | 27.25521 | 35.23391 | 37864 ft | 428 kts | 304° |
| 2026-04-25 13:20 | 27.29623 | 35.18534 | 37847 ft | 428 kts | 304° |
| 2026-04-25 13:21 | 27.33702 | 35.13701 | 37858 ft | 428 kts | 303° |
| 2026-04-25 13:21 | 27.37802 | 35.08837 | 37859 ft | 428 kts | 304° |
| 2026-04-25 13:22 | 27.41897 | 35.03973 | 37855 ft | 428 kts | 303° |
| 2026-04-25 13:23 | 27.48034 | 34.96674 | 37858 ft | 428 kts | 303° |
| 2026-04-25 13:23 | 27.52179 | 34.91837 | 37857 ft | 432 kts | 307° |
| 2026-04-25 13:24 | 27.55849 | 34.87987 | 37855 ft | 433 kts | 307° |
| 2026-04-25 13:24 | 27.60248 | 34.83345 | 37856 ft | 433 kts | 307° |
| 2026-04-25 13:25 | 27.65358 | 34.77940 | 37853 ft | 433 kts | 307° |
| 2026-04-25 13:25 | 27.69039 | 34.74042 | 37859 ft | 433 kts | 307° |
| 2026-04-25 13:26 | 27.73431 | 34.69386 | 37853 ft | 433 kts | 306° |
| 2026-04-25 13:26 | 27.77801 | 34.64748 | 37852 ft | 433 kts | 306° |
| 2026-04-25 13:27 | 27.82187 | 34.60088 | 37857 ft | 433 kts | 306° |
| 2026-04-25 13:27 | 27.86576 | 34.55419 | 37856 ft | 434 kts | 306° |
| 2026-04-25 13:28 | 27.90971 | 34.50740 | 37858 ft | 433 kts | 306° |
| 2026-04-25 13:28 | 27.95363 | 34.46057 | 37859 ft | 433 kts | 306° |
| 2026-04-25 13:29 | 27.99716 | 34.41336 | 37859 ft | 429 kts | 303° |
| 2026-04-25 13:29 | 28.03480 | 34.36245 | 37844 ft | 422 kts | 300° |
| 2026-04-25 13:30 | 28.09083 | 34.28509 | 37875 ft | 425 kts | 300° |
| 2026-04-25 13:31 | 28.14698 | 34.20732 | 37882 ft | 425 kts | 300° |
| 2026-04-25 13:31 | 28.18435 | 34.15544 | 37874 ft | 425 kts | 300° |
| 2026-04-25 13:32 | 28.22174 | 34.10348 | 37885 ft | 425 kts | 300° |
| 2026-04-25 13:32 | 28.25914 | 34.05144 | 37889 ft | 425 kts | 301° |
| 2026-04-25 13:33 | 28.29636 | 33.99960 | 37879 ft | 422 kts | 300° |
| 2026-04-25 13:33 | 28.33347 | 33.94790 | 37880 ft | 425 kts | 300° |
| 2026-04-25 13:34 | 28.37098 | 33.89553 | 37884 ft | 427 kts | 300° |
| 2026-04-25 13:34 | 28.40839 | 33.84322 | 37888 ft | 426 kts | 300° |
| 2026-04-25 13:35 | 28.44584 | 33.79073 | 37882 ft | 427 kts | 300° |
| 2026-04-25 13:35 | 28.48316 | 33.73851 | 37837 ft | 424 kts | 300° |
| 2026-04-25 13:36 | 28.52047 | 33.68617 | 37858 ft | 426 kts | 300° |
| 2026-04-25 13:36 | 28.55784 | 33.63368 | 37872 ft | 424 kts | 300° |
| 2026-04-25 13:37 | 28.59498 | 33.58147 | 37902 ft | 427 kts | 300° |
| 2026-04-25 13:37 | 28.63258 | 33.52861 | 37883 ft | 427 kts | 300° |
| 2026-04-25 13:38 | 28.66982 | 33.47609 | 37877 ft | 428 kts | 300° |
| 2026-04-25 13:38 | 28.70726 | 33.42327 | 37870 ft | 428 kts | 300° |
| 2026-04-25 13:39 | 28.74470 | 33.37034 | 37877 ft | 431 kts | 300° |
| 2026-04-25 13:39 | 28.78223 | 33.31727 | 37872 ft | 430 kts | 300° |
| 2026-04-25 13:40 | 28.81976 | 33.26411 | 37874 ft | 429 kts | 300° |
| 2026-04-25 13:40 | 28.85690 | 33.21143 | 37869 ft | 430 kts | 300° |
| 2026-04-25 13:41 | 28.89438 | 33.15820 | 37863 ft | 430 kts | 300° |
| 2026-04-25 13:41 | 28.93186 | 33.10490 | 37866 ft | 431 kts | 300° |
| 2026-04-25 13:42 | 28.96937 | 33.05150 | 37862 ft | 431 kts | 300° |
| 2026-04-25 13:42 | 29.00686 | 32.99805 | 37859 ft | 431 kts | 300° |
| 2026-04-25 13:43 | 29.04443 | 32.94442 | 37864 ft | 432 kts | 300° |
| 2026-04-25 13:43 | 29.08197 | 32.89076 | 37862 ft | 432 kts | 300° |
| 2026-04-25 13:44 | 29.11958 | 32.83694 | 37863 ft | 432 kts | 300° |
| 2026-04-25 13:44 | 29.15714 | 32.78311 | 37866 ft | 433 kts | 300° |
| 2026-04-25 13:45 | 29.19473 | 32.72917 | 37866 ft | 434 kts | 300° |
| 2026-04-25 13:45 | 29.23239 | 32.67507 | 37871 ft | 434 kts | 300° |
| 2026-04-25 13:46 | 29.27000 | 32.62095 | 37866 ft | 435 kts | 300° |
| 2026-04-25 13:46 | 29.30731 | 32.56704 | 37880 ft | 435 kts | 300° |
| 2026-04-25 13:47 | 29.34467 | 32.51255 | 37877 ft | 435 kts | 300° |
| 2026-04-25 13:47 | 29.38216 | 32.45785 | 37883 ft | 435 kts | 300° |
| 2026-04-25 13:48 | 29.41962 | 32.40318 | 37885 ft | 435 kts | 300° |
| 2026-04-25 13:48 | 29.45702 | 32.34851 | 37893 ft | 436 kts | 300° |
| 2026-04-25 13:49 | 29.49449 | 32.29369 | 37892 ft | 436 kts | 300° |
| 2026-04-25 13:49 | 29.53192 | 32.23885 | 37902 ft | 436 kts | 300° |
| 2026-04-25 13:50 | 29.56932 | 32.18395 | 37890 ft | 436 kts | 300° |
| 2026-04-25 13:50 | 29.60671 | 32.12899 | 37899 ft | 437 kts | 300° |
| 2026-04-25 13:51 | 29.64412 | 32.07392 | 37900 ft | 437 kts | 300° |
| 2026-04-25 13:51 | 29.68154 | 32.01880 | 37899 ft | 437 kts | 300° |
| 2026-04-25 13:52 | 29.71875 | 31.96390 | 37893 ft | 437 kts | 300° |
| 2026-04-25 13:52 | 29.75612 | 31.90869 | 37895 ft | 438 kts | 300° |
| 2026-04-25 13:53 | 29.79351 | 31.85326 | 37886 ft | 437 kts | 299° |
| 2026-04-25 13:53 | 29.82959 | 31.79701 | 37890 ft | 436 kts | 298° |
| 2026-04-25 13:54 | 29.86520 | 31.74103 | 37888 ft | 436 kts | 298° |
| 2026-04-25 13:54 | 29.90736 | 31.68933 | 37883 ft | 456 kts | 314° |
| 2026-04-25 13:54 | 29.93475 | 31.66965 | 37872 ft | 471 kts | 323° |
| 2026-04-25 13:55 | 29.96566 | 31.65551 | 37871 ft | 487 kts | 333° |
| 2026-04-25 13:55 | 29.99865 | 31.64776 | 37871 ft | 500 kts | 341° |
| 2026-04-25 13:55 | 30.03332 | 31.64183 | 37856 ft | 501 kts | 340° |
| 2026-04-25 13:56 | 30.10216 | 31.62959 | 37864 ft | 501 kts | 340° |
| 2026-04-25 13:56 | 30.17116 | 31.61718 | 37858 ft | 502 kts | 341° |
| 2026-04-25 13:57 | 30.23989 | 31.60482 | 37856 ft | 502 kts | 341° |
| 2026-04-25 13:57 | 30.30925 | 31.59233 | 37856 ft | 502 kts | 341° |
| 2026-04-25 13:58 | 30.37832 | 31.57988 | 37852 ft | 503 kts | 341° |
| 2026-04-25 13:58 | 30.44758 | 31.56738 | 37843 ft | 503 kts | 341° |
| 2026-04-25 13:59 | 30.51677 | 31.55487 | 37842 ft | 503 kts | 341° |
| 2026-04-25 13:59 | 30.58587 | 31.54237 | 37841 ft | 504 kts | 341° |
| 2026-04-25 14:00 | 30.65509 | 31.52981 | 37841 ft | 504 kts | 341° |
| 2026-04-25 14:00 | 30.72437 | 31.51724 | 37842 ft | 504 kts | 342° |
| 2026-04-25 14:01 | 30.79382 | 31.50460 | 37848 ft | 504 kts | 342° |
| 2026-04-25 14:01 | 30.86324 | 31.49192 | 37845 ft | 505 kts | 342° |
| 2026-04-25 14:02 | 30.93282 | 31.47920 | 37846 ft | 506 kts | 342° |
| 2026-04-25 14:02 | 31.00237 | 31.46648 | 37845 ft | 506 kts | 342° |
| 2026-04-25 14:03 | 31.07206 | 31.45370 | 37848 ft | 507 kts | 342° |
| 2026-04-25 14:03 | 31.13644 | 31.44188 | 37849 ft | 508 kts | 342° |
| 2026-04-25 14:04 | 31.20636 | 31.42903 | 37850 ft | 508 kts | 342° |
| 2026-04-25 14:04 | 31.27636 | 31.41614 | 37854 ft | 509 kts | 342° |
| 2026-04-25 14:05 | 31.34636 | 31.40317 | 37835 ft | 510 kts | 342° |
| 2026-04-25 14:05 | 31.41642 | 31.39017 | 37846 ft | 510 kts | 343° |
| 2026-04-25 14:06 | 31.48660 | 31.37713 | 37865 ft | 511 kts | 343° |
| 2026-04-25 14:06 | 31.55691 | 31.36428 | 37860 ft | 514 kts | 345° |
| 2026-04-25 14:07 | 31.62845 | 31.35690 | 37874 ft | 516 kts | 347° |
| 2026-04-25 14:07 | 31.69953 | 31.34951 | 37869 ft | 516 kts | 347° |
| 2026-04-25 14:08 | 31.77107 | 31.34205 | 37871 ft | 516 kts | 347° |
| 2026-04-25 14:08 | 31.84260 | 31.33461 | 37873 ft | 516 kts | 347° |
| 2026-04-25 14:09 | 31.91419 | 31.32712 | 37873 ft | 516 kts | 347° |
| 2026-04-25 14:09 | 31.98581 | 31.31953 | 37873 ft | 516 kts | 347° |
| 2026-04-25 14:10 | 32.05746 | 31.31192 | 37871 ft | 516 kts | 348° |
| 2026-04-25 14:10 | 32.11690 | 31.30559 | 37876 ft | 516 kts | 348° |
| 2026-04-25 14:11 | 32.18860 | 31.29792 | 37877 ft | 516 kts | 348° |
| 2026-04-25 14:11 | 32.26014 | 31.29022 | 37866 ft | 516 kts | 348° |
| 2026-04-25 14:12 | 32.33169 | 31.28250 | 37867 ft | 517 kts | 348° |
| 2026-04-25 14:12 | 32.40332 | 31.27477 | 37882 ft | 516 kts | 348° |
| 2026-04-25 14:13 | 32.47438 | 31.26709 | 37880 ft | 516 kts | 348° |
| 2026-04-25 14:13 | 32.54567 | 31.25802 | 37889 ft | 511 kts | 343° |
| 2026-04-25 14:14 | 32.61307 | 31.23457 | 37884 ft | 500 kts | 331° |
| 2026-04-25 14:14 | 32.67530 | 31.19898 | 37886 ft | 496 kts | 328° |
| 2026-04-25 14:15 | 32.73733 | 31.16297 | 37884 ft | 496 kts | 328° |
| 2026-04-25 14:15 | 32.79940 | 31.12677 | 37887 ft | 496 kts | 328° |
| 2026-04-25 14:16 | 32.86143 | 31.09043 | 37883 ft | 497 kts | 328° |
| 2026-04-25 14:16 | 32.92341 | 31.05405 | 37886 ft | 497 kts | 328° |
| 2026-04-25 14:17 | 32.98509 | 31.01778 | 37886 ft | 497 kts | 328° |
| 2026-04-25 14:17 | 33.04714 | 30.98124 | 37887 ft | 498 kts | 328° |
| 2026-04-25 14:18 | 33.11339 | 30.95436 | 37887 ft | 510 kts | 343° |
| 2026-04-25 14:18 | 33.18474 | 30.94699 | 37892 ft | 518 kts | 353° |
| 2026-04-25 14:19 | 33.25691 | 30.94428 | 37895 ft | 518 kts | 353° |
| 2026-04-25 14:19 | 33.32885 | 30.94144 | 37894 ft | 517 kts | 353° |
| 2026-04-25 14:20 | 33.40042 | 30.93872 | 37893 ft | 518 kts | 353° |
| 2026-04-25 14:20 | 33.47237 | 30.93600 | 37894 ft | 517 kts | 353° |
| 2026-04-25 14:21 | 33.54440 | 30.93328 | 37893 ft | 517 kts | 353° |
| 2026-04-25 14:21 | 33.61625 | 30.93057 | 37896 ft | 516 kts | 354° |
| 2026-04-25 14:22 | 33.68806 | 30.92785 | 37899 ft | 516 kts | 354° |
| 2026-04-25 14:22 | 33.75981 | 30.92512 | 37899 ft | 516 kts | 354° |
| 2026-04-25 14:23 | 33.83126 | 30.92241 | 37903 ft | 516 kts | 354° |
| 2026-04-25 14:23 | 33.90304 | 30.91967 | 37904 ft | 515 kts | 354° |
| 2026-04-25 14:24 | 33.97489 | 30.91685 | 37906 ft | 515 kts | 353° |
| 2026-04-25 14:24 | 34.04647 | 30.91282 | 37899 ft | 515 kts | 353° |
| 2026-04-25 14:25 | 34.11767 | 30.90868 | 37910 ft | 515 kts | 353° |
| 2026-04-25 14:25 | 34.18934 | 30.90465 | 37901 ft | 515 kts | 353° |
| 2026-04-25 14:26 | 34.26101 | 30.90068 | 37913 ft | 516 kts | 353° |
| 2026-04-25 14:26 | 34.33275 | 30.89718 | 37920 ft | 516 kts | 354° |
| 2026-04-25 14:27 | 34.40446 | 30.89375 | 37920 ft | 516 kts | 353° |
| 2026-04-25 14:27 | 34.47623 | 30.89025 | 37915 ft | 516 kts | 353° |
| 2026-04-25 14:28 | 34.54788 | 30.88672 | 37915 ft | 516 kts | 353° |
| 2026-04-25 14:28 | 34.61966 | 30.88319 | 37915 ft | 516 kts | 354° |
| 2026-04-25 14:29 | 34.69143 | 30.88058 | 37918 ft | 516 kts | 354° |
| 2026-04-25 14:29 | 34.76329 | 30.87843 | 37918 ft | 516 kts | 354° |
| 2026-04-25 14:30 | 34.83462 | 30.87613 | 37920 ft | 516 kts | 354° |
| 2026-04-25 14:30 | 34.94235 | 30.87256 | 37920 ft | 516 kts | 354° |
| 2026-04-25 14:31 | 35.01420 | 30.87018 | 37920 ft | 517 kts | 354° |
| 2026-04-25 14:31 | 35.08616 | 30.86778 | 37921 ft | 517 kts | 354° |
| 2026-04-25 14:32 | 35.15820 | 30.86537 | 37928 ft | 518 kts | 354° |
| 2026-04-25 14:32 | 35.23045 | 30.86296 | 37927 ft | 519 kts | 354° |
| 2026-04-25 14:33 | 35.30260 | 30.86055 | 37926 ft | 519 kts | 354° |
| 2026-04-25 14:33 | 35.37484 | 30.85813 | 37926 ft | 519 kts | 355° |
| 2026-04-25 14:34 | 35.44657 | 30.85572 | 37931 ft | 519 kts | 355° |
| 2026-04-25 14:34 | 35.51877 | 30.85329 | 37930 ft | 519 kts | 355° |
| 2026-04-25 14:35 | 35.59095 | 30.85086 | 37926 ft | 518 kts | 355° |
| 2026-04-25 14:35 | 35.66297 | 30.84780 | 37932 ft | 518 kts | 353° |
| 2026-04-25 14:36 | 35.73504 | 30.84312 | 37935 ft | 517 kts | 353° |
| 2026-04-25 14:36 | 35.80687 | 30.83859 | 37937 ft | 517 kts | 354° |
| 2026-04-25 14:37 | 35.87878 | 30.83423 | 37936 ft | 517 kts | 354° |
| 2026-04-25 14:37 | 35.95063 | 30.82989 | 37938 ft | 516 kts | 354° |
| 2026-04-25 14:38 | 36.02191 | 30.82557 | 37940 ft | 516 kts | 354° |
| 2026-04-25 14:38 | 36.09374 | 30.82209 | 37943 ft | 516 kts | 355° |
| 2026-04-25 14:39 | 36.16560 | 30.82009 | 37942 ft | 516 kts | 356° |
| 2026-04-25 14:39 | 36.23741 | 30.81788 | 37942 ft | 516 kts | 355° |
| 2026-04-25 14:40 | 36.30932 | 30.81550 | 37941 ft | 516 kts | 356° |
| 2026-04-25 14:40 | 36.38130 | 30.81309 | 37944 ft | 517 kts | 356° |
| 2026-04-25 14:41 | 36.45329 | 30.81066 | 37949 ft | 517 kts | 356° |
| 2026-04-25 14:41 | 36.52530 | 30.80817 | 37950 ft | 518 kts | 356° |
| 2026-04-25 14:42 | 36.57304 | 30.80652 | 37961 ft | 519 kts | 356° |
| 2026-04-25 14:42 | 36.66922 | 30.80319 | 37971 ft | 518 kts | 356° |
| 2026-04-25 14:43 | 36.74124 | 30.80070 | 37973 ft | 518 kts | 356° |
| 2026-04-25 14:43 | 36.81337 | 30.79820 | 37959 ft | 518 kts | 356° |
| 2026-04-25 14:44 | 36.88530 | 30.79570 | 37959 ft | 517 kts | 356° |
| 2026-04-25 14:44 | 36.95697 | 30.78999 | 37968 ft | 515 kts | 352° |
| 2026-04-25 14:45 | 37.02834 | 30.78104 | 37966 ft | 515 kts | 352° |
| 2026-04-25 14:45 | 37.09962 | 30.77225 | 37970 ft | 515 kts | 352° |
| 2026-04-25 14:46 | 37.17087 | 30.76340 | 37975 ft | 515 kts | 352° |
| 2026-04-25 14:46 | 37.24227 | 30.75449 | 37992 ft | 515 kts | 352° |
| 2026-04-25 14:47 | 37.28949 | 30.74858 | 37997 ft | 515 kts | 352° |
| 2026-04-25 14:47 | 37.38464 | 30.73666 | 38009 ft | 516 kts | 352° |
| 2026-04-25 14:48 | 37.45621 | 30.72731 | 38019 ft | 516 kts | 351° |
| 2026-04-25 14:48 | 37.52724 | 30.71673 | 38026 ft | 514 kts | 351° |
| 2026-04-25 14:49 | 37.59827 | 30.70623 | 38032 ft | 513 kts | 352° |
| 2026-04-25 14:49 | 37.66945 | 30.69737 | 38042 ft | 513 kts | 353° |
| 2026-04-25 14:50 | 37.74026 | 30.68888 | 38041 ft | 512 kts | 352° |
| 2026-04-25 14:50 | 37.81144 | 30.68012 | 38047 ft | 512 kts | 352° |
| 2026-04-25 14:51 | 37.88232 | 30.67132 | 38053 ft | 511 kts | 352° |
| 2026-04-25 14:51 | 37.95262 | 30.66169 | 38050 ft | 510 kts | 351° |
| 2026-04-25 14:52 | 38.02300 | 30.65142 | 38050 ft | 510 kts | 352° |
| 2026-04-25 14:52 | 38.07026 | 30.64526 | 38048 ft | 508 kts | 352° |
| 2026-04-25 14:53 | 38.16384 | 30.63314 | 38051 ft | 507 kts | 352° |
| 2026-04-25 14:53 | 38.23005 | 30.62445 | 38044 ft | 506 kts | 352° |
| 2026-04-25 14:54 | 38.30019 | 30.61520 | 38046 ft | 505 kts | 352° |
| 2026-04-25 14:54 | 38.36995 | 30.60579 | 38045 ft | 505 kts | 352° |
| 2026-04-25 14:55 | 38.43944 | 30.59638 | 38040 ft | 506 kts | 352° |
| 2026-04-25 14:55 | 38.50944 | 30.58691 | 38033 ft | 506 kts | 352° |
| 2026-04-25 14:56 | 38.57960 | 30.57740 | 38030 ft | 507 kts | 352° |
| 2026-04-25 14:56 | 38.64972 | 30.56788 | 38024 ft | 507 kts | 352° |
| 2026-04-25 14:57 | 38.72007 | 30.55831 | 38019 ft | 508 kts | 352° |
| 2026-04-25 14:57 | 38.78954 | 30.54492 | 38017 ft | 506 kts | 343° |
| 2026-04-25 14:58 | 38.84491 | 30.52029 | 38008 ft | 501 kts | 333° |
| 2026-04-25 14:58 | 38.91731 | 30.47426 | 38004 ft | 499 kts | 331° |
| 2026-04-25 14:59 | 38.96939 | 30.44119 | 38002 ft | 498 kts | 331° |
| 2026-04-25 14:59 | 39.03148 | 30.40150 | 37996 ft | 497 kts | 331° |
| 2026-04-25 15:00 | 39.09297 | 30.36200 | 37995 ft | 497 kts | 331° |
| 2026-04-25 15:00 | 39.15489 | 30.32213 | 37989 ft | 497 kts | 331° |
| 2026-04-25 15:01 | 39.21676 | 30.28221 | 37981 ft | 496 kts | 331° |
| 2026-04-25 15:01 | 39.27853 | 30.24228 | 37982 ft | 497 kts | 331° |
| 2026-04-25 15:02 | 39.34042 | 30.20220 | 37981 ft | 497 kts | 331° |
| 2026-04-25 15:02 | 39.40214 | 30.16214 | 37975 ft | 496 kts | 331° |
| 2026-04-25 15:03 | 39.46401 | 30.12219 | 37973 ft | 498 kts | 334° |
| 2026-04-25 15:03 | 39.52776 | 30.08685 | 37979 ft | 498 kts | 335° |
| 2026-04-25 15:04 | 39.59097 | 30.05164 | 37970 ft | 498 kts | 335° |
| 2026-04-25 15:04 | 39.65462 | 30.01610 | 37972 ft | 498 kts | 335° |
| 2026-04-25 15:05 | 39.71823 | 29.98051 | 37970 ft | 497 kts | 335° |
| 2026-04-25 15:06 | 39.81353 | 29.92706 | 37852 ft | 494 kts | 335° |
| 2026-04-25 15:06 | 39.84488 | 29.90943 | 37326 ft | 489 kts | 336° |
| 2026-04-25 15:06 | 39.87597 | 29.89191 | 36709 ft | 484 kts | 336° |
| 2026-04-25 15:06 | 39.90674 | 29.87454 | 36096 ft | 480 kts | 336° |
| 2026-04-25 15:07 | 39.93634 | 29.85510 | 35473 ft | 475 kts | 332° |
| 2026-04-25 15:07 | 39.96534 | 29.83468 | 34905 ft | 471 kts | 332° |
| 2026-04-25 15:07 | 39.99410 | 29.81466 | 34339 ft | 467 kts | 333° |
| 2026-04-25 15:07 | 40.02187 | 29.79538 | 33799 ft | 463 kts | 333° |
| 2026-04-25 15:08 | 40.05037 | 29.77556 | 33211 ft | 458 kts | 333° |
| 2026-04-25 15:08 | 40.07798 | 29.75633 | 32649 ft | 454 kts | 333° |
| 2026-04-25 15:08 | 40.10566 | 29.73701 | 32082 ft | 449 kts | 333° |
| 2026-04-25 15:08 | 40.13311 | 29.71782 | 31530 ft | 445 kts | 333° |
| 2026-04-25 15:09 | 40.16030 | 29.69878 | 30969 ft | 441 kts | 333° |
| 2026-04-25 15:09 | 40.18728 | 29.67988 | 30430 ft | 437 kts | 333° |
| 2026-04-25 15:09 | 40.24030 | 29.64269 | 29270 ft | 429 kts | 333° |
| 2026-04-25 15:10 | 40.26647 | 29.62431 | 28662 ft | 425 kts | 333° |
| 2026-04-25 15:10 | 40.29245 | 29.60604 | 28063 ft | 422 kts | 333° |
| 2026-04-25 15:10 | 40.34370 | 29.56995 | 26891 ft | 415 kts | 332° |
| 2026-04-25 15:11 | 40.36900 | 29.55211 | 26323 ft | 412 kts | 332° |
| 2026-04-25 15:11 | 40.39416 | 29.53436 | 25786 ft | 408 kts | 332° |
| 2026-04-25 15:11 | 40.41911 | 29.51673 | 25201 ft | 405 kts | 332° |
| 2026-04-25 15:12 | 40.46819 | 29.48203 | 24129 ft | 400 kts | 332° |
| 2026-04-25 15:12 | 40.49259 | 29.46475 | 23582 ft | 397 kts | 332° |
| 2026-04-25 15:12 | 40.51417 | 29.44945 | 23082 ft | 394 kts | 332° |
| 2026-04-25 15:12 | 40.53008 | 29.43818 | 22700 ft | 392 kts | 332° |
| 2026-04-25 15:13 | 40.56210 | 29.41547 | 21930 ft | 387 kts | 332° |
| 2026-04-25 15:13 | 40.60877 | 29.38231 | 20848 ft | 381 kts | 332° |
| 2026-04-25 15:13 | 40.63220 | 29.36564 | 20303 ft | 378 kts | 332° |
| 2026-04-25 15:14 | 40.65254 | 29.35116 | 19847 ft | 376 kts | 332° |
| 2026-04-25 15:14 | 40.67585 | 29.33456 | 19293 ft | 373 kts | 332° |
| 2026-04-25 15:14 | 40.69867 | 29.31829 | 18782 ft | 371 kts | 331° |
| 2026-04-25 15:14 | 40.72142 | 29.30205 | 18260 ft | 368 kts | 331° |
| 2026-04-25 15:15 | 40.74368 | 29.28615 | 17694 ft | 365 kts | 331° |
| 2026-04-25 15:15 | 40.76600 | 29.27020 | 17156 ft | 362 kts | 331° |
| 2026-04-25 15:15 | 40.78804 | 29.25443 | 16604 ft | 359 kts | 331° |
| 2026-04-25 15:15 | 40.80978 | 29.23886 | 16083 ft | 356 kts | 331° |
| 2026-04-25 15:16 | 40.83152 | 29.22329 | 15547 ft | 353 kts | 331° |
| 2026-04-25 15:16 | 40.85292 | 29.20795 | 15038 ft | 350 kts | 331° |
| 2026-04-25 15:16 | 40.89545 | 29.17742 | 14021 ft | 345 kts | 331° |
| 2026-04-25 15:17 | 40.93630 | 29.14542 | 12917 ft | 339 kts | 316° |
| 2026-04-25 15:17 | 40.95025 | 29.12081 | 12403 ft | 334 kts | 295° |
| 2026-04-25 15:17 | 40.95610 | 29.09155 | 11913 ft | 331 kts | 272° |
| 2026-04-25 15:18 | 40.95452 | 29.06793 | 11523 ft | 329 kts | 255° |
| 2026-04-25 15:18 | 40.92899 | 29.02129 | 10562 ft | 326 kts | 212° |
| 2026-04-25 15:18 | 40.90785 | 29.01087 | 10093 ft | 325 kts | 190° |
| 2026-04-25 15:19 | 40.88532 | 29.01182 | 9590 ft | 324 kts | 172° |
| 2026-04-25 15:19 | 40.87580 | 29.01432 | 9371 ft | 323 kts | 169° |
| 2026-04-25 15:19 | 40.86888 | 29.01642 | 9202 ft | 322 kts | 168° |
| 2026-04-25 15:19 | 40.85502 | 29.02091 | 8872 ft | 320 kts | 168° |
| 2026-04-25 15:20 | 40.83335 | 29.02780 | 8358 ft | 317 kts | 168° |
| 2026-04-25 15:20 | 40.81198 | 29.03451 | 7855 ft | 313 kts | 168° |
| 2026-04-25 15:20 | 40.79069 | 29.04089 | 7354 ft | 308 kts | 173° |
| 2026-04-25 15:20 | 40.76976 | 29.03959 | 6871 ft | 303 kts | 195° |
| 2026-04-25 15:21 | 40.75061 | 29.02891 | 6334 ft | 293 kts | 211° |
| 2026-04-25 15:21 | 40.73572 | 29.01156 | 5832 ft | 284 kts | 234° |
| 2026-04-25 15:21 | 40.72683 | 28.98898 | 5331 ft | 277 kts | 246° |
| 2026-04-25 15:21 | 40.71989 | 28.96597 | 5057 ft | 262 kts | 249° |
| 2026-04-25 15:22 | 40.71469 | 28.94356 | 4961 ft | 243 kts | 255° |
| 2026-04-25 15:22 | 40.71337 | 28.92234 | 4955 ft | 226 kts | 279° |
| 2026-04-25 15:22 | 40.71644 | 28.90937 | 4980 ft | 220 kts | 296° |
| 2026-04-25 15:22 | 40.72624 | 28.89403 | 4971 ft | 217 kts | 323° |
| 2026-04-25 15:23 | 40.74000 | 28.88624 | 4973 ft | 220 kts | 343° |
| 2026-04-25 15:23 | 40.75495 | 28.88059 | 4966 ft | 222 kts | 343° |
| 2026-04-25 15:23 | 40.76974 | 28.87464 | 4966 ft | 222 kts | 342° |
| 2026-04-25 15:23 | 40.78434 | 28.86867 | 4969 ft | 222 kts | 342° |
| 2026-04-25 15:24 | 40.79921 | 28.86259 | 4969 ft | 222 kts | 342° |
| 2026-04-25 15:24 | 40.81333 | 28.85684 | 4971 ft | 222 kts | 342° |
| 2026-04-25 15:24 | 40.82820 | 28.85081 | 4973 ft | 222 kts | 342° |
| 2026-04-25 15:24 | 40.83808 | 28.84680 | 4972 ft | 223 kts | 342° |
| 2026-04-25 15:25 | 40.85783 | 28.83879 | 4970 ft | 222 kts | 342° |
| 2026-04-25 15:25 | 40.87106 | 28.83343 | 4970 ft | 223 kts | 342° |
| 2026-04-25 15:25 | 40.88574 | 28.82729 | 4974 ft | 223 kts | 338° |
| 2026-04-25 15:25 | 40.89963 | 28.81839 | 4971 ft | 222 kts | 331° |
| 2026-04-25 15:26 | 40.91360 | 28.80889 | 4976 ft | 231 kts | 332° |
| 2026-04-25 15:26 | 40.92767 | 28.79947 | 4968 ft | 252 kts | 332° |
| 2026-04-25 15:26 | 40.94446 | 28.78824 | 4974 ft | 277 kts | 332° |
| 2026-04-25 15:26 | 40.96157 | 28.77685 | 4972 ft | 278 kts | 332° |
| 2026-04-25 15:27 | 40.97856 | 28.76557 | 4971 ft | 264 kts | 332° |
| 2026-04-25 15:27 | 40.99436 | 28.75506 | 4970 ft | 246 kts | 332° |
| 2026-04-25 15:27 | 41.02350 | 28.73601 | 4868 ft | 222 kts | 338° |
| 2026-04-25 15:28 | 41.03808 | 28.73177 | 4777 ft | 203 kts | 355° |
| 2026-04-25 15:28 | 41.05074 | 28.73186 | 4587 ft | 180 kts | 0° |
| 2026-04-25 15:28 | 41.06283 | 28.73186 | 4157 ft | 173 kts | 359° |
| 2026-04-25 15:28 | 41.07475 | 28.73157 | 3972 ft | 168 kts | 359° |
| 2026-04-25 15:29 | 41.08622 | 28.73125 | 3802 ft | 163 kts | 359° |
| 2026-04-25 15:29 | 41.09710 | 28.73101 | 3648 ft | 149 kts | 359° |
| 2026-04-25 15:29 | 41.10690 | 28.73082 | 3317 ft | 146 kts | 359° |
| 2026-04-25 15:29 | 41.11698 | 28.73063 | 3035 ft | 142 kts | 359° |
| 2026-04-25 15:30 | 41.12670 | 28.73037 | 3008 ft | 141 kts | 359° |
| 2026-04-25 15:30 | 41.13672 | 28.73021 | 2951 ft | 142 kts | 0° |
| 2026-04-25 15:30 | 41.14653 | 28.73008 | 2765 ft | 142 kts | 0° |
| 2026-04-25 15:30 | 41.15597 | 28.72985 | 2450 ft | 138 kts | 0° |
| 2026-04-25 15:31 | 41.16574 | 28.72958 | 2086 ft | 140 kts | 1° |
| 2026-04-25 15:31 | 41.17506 | 28.72942 | 1921 ft | 127 kts | 2° |
| 2026-04-25 15:31 | 41.18406 | 28.72919 | 2000 ft | 138 kts | 1° |
| 2026-04-25 15:31 | 41.19186 | 28.72900 | 1946 ft | 143 kts | 1° |
| 2026-04-25 15:32 | 41.20121 | 28.72900 | 1846 ft | 137 kts | 3° |
| 2026-04-25 15:32 | 41.20997 | 28.72903 | 1665 ft | 130 kts | 4° |
| 2026-04-25 15:32 | 41.21841 | 28.72893 | 1378 ft | 133 kts | 1° |
| 2026-04-25 15:33 | 41.23446 | 28.72813 | 887 ft | 137 kts | 3° |
| 2026-04-25 15:33 | 41.24380 | 28.72796 | 731 ft | 137 kts | 4° |
| 2026-04-25 15:33 | 41.25335 | 28.72777 | 565 ft | 135 kts | 4° |
| 2026-04-25 15:33 | 41.26263 | 28.72764 | 384 ft | 135 kts | 4° |
| 2026-04-25 15:34 | 41.27009 | 28.72760 | 347 ft | 115 kts | 5° |
| 2026-04-25 15:34 | 41.27597 | 28.72752 | 335 ft | 48 kts | 359° |
| 2026-04-25 15:34 | 41.27882 | 28.72746 | 334 ft | 36 kts | 6° |
| 2026-04-25 15:34 | 41.27958 | 28.72767 | 334 ft | 33 kts | 18° |
| 2026-04-25 15:35 | 41.27904 | 28.72967 | 338 ft | 46 kts | 181° |
| 2026-04-25 15:35 | 41.27670 | 28.72971 | 335 ft | 28 kts | 178° |
| 2026-04-25 15:35 | 41.27479 | 28.72974 | 338 ft | 25 kts | 179° |
| 2026-04-25 15:36 | 41.27164 | 28.72982 | 335 ft | 25 kts | 178° |
| 2026-04-25 15:36 | 41.27109 | 28.72984 | 338 ft | 13 kts | 178° |
| 2026-04-25 15:36 | 41.27046 | 28.73046 | 335 ft | 12 kts | 105° |
| 2026-04-25 15:37 | 41.27041 | 28.73167 | 339 ft | 14 kts | 88° |
| 2026-04-25 15:37 | 41.27042 | 28.73206 | 338 ft | 1 kts | 88° |
| 2026-04-25 15:37 | 41.27042 | 28.73243 | 339 ft | 6 kts | 88° |
| 2026-04-25 15:37 | 41.27044 | 28.73317 | 339 ft | 10 kts | 88° |
| 2026-04-25 15:38 | 41.27045 | 28.73415 | 335 ft | 12 kts | 89° |
| 2026-04-25 15:38 | 41.27046 | 28.73538 | 335 ft | 14 kts | 90° |
| 2026-04-25 15:38 | 41.27048 | 28.73678 | 336 ft | 16 kts | 88° |
| 2026-04-25 15:38 | 41.27050 | 28.73817 | 339 ft | 9 kts | 105° |
| 2026-04-25 15:39 | 41.26999 | 28.73867 | 334 ft | 10 kts | 172° |
| 2026-04-25 15:39 | 41.26911 | 28.73871 | 338 ft | 15 kts | 179° |
| 2026-04-25 15:39 | 41.26826 | 28.73872 | 338 ft | 7 kts | 181° |
| 2026-04-25 15:39 | 41.26788 | 28.73852 | 335 ft | 5 kts | 251° |
| 2026-04-25 15:40 | 41.26792 | 28.73792 | 335 ft | 9 kts | 271° |
| 2026-04-25 15:40 | 41.26792 | 28.73784 | 336 ft | 0 kts | 270° |
| 2026-04-25 15:40 | 41.26792 | 28.73776 | 336 ft | 0 kts | 269° |
| 2026-04-25 15:40 | 41.26792 | 28.73774 | 336 ft | 2 kts | 269° |
| 2026-04-25 15:41 | 41.26792 | 28.73772 | 336 ft | 0 kts | 269° |